Time;durP1;ratioP1;P1;durP2;ratioP2;P2;SDS_P1;SDS_P2;PMS_P1;PMS_P2;Temp;Humidity;BMP_temperature;BMP_pressure;BME280_temperature;BME280_humidity;BME280_pressure;Samples;Min_cycle;Max_cycle;Signal;HPM_P1;HPM_P2
2021/01/23 00:00:08;;;;;;;5.00;2.90;;;;;;;2.27;100.00;100118.25;1719513;83;21034;-74
2021/01/23 00:02:38;;;;;;;4.77;3.13;;;;;;;2.27;100.00;100123.58;1719560;83;20955;-73
2021/01/23 00:05:07;;;;;;;6.97;3.83;;;;;;;2.26;100.00;100116.53;1719607;83;21077;-74
2021/01/23 00:07:35;;;;;;;4.37;3.13;;;;;;;2.26;100.00;100120.04;1719583;83;21210;-74
2021/01/23 00:10:05;;;;;;;4.23;3.07;;;;;;;2.27;100.00;100120.42;1726338;82;20986;-75
2021/01/23 00:12:34;;;;;;;4.40;3.30;;;;;;;2.27;100.00;100116.42;1729709;82;21014;-75
2021/01/23 00:15:02;;;;;;;7.27;3.73;;;;;;;2.28;100.00;100118.13;1729700;83;21097;-74
2021/01/23 00:17:30;;;;;;;5.27;3.40;;;;;;;2.29;100.00;100121.64;1729706;83;20950;-74
2021/01/23 00:19:57;;;;;;;8.33;4.57;;;;;;;2.28;100.00;100114.59;1729631;83;21638;-75
2021/01/23 00:22:25;;;;;;;5.23;3.03;;;;;;;2.28;100.00;100107.46;1729732;83;21567;-74
2021/01/23 00:24:53;;;;;;;9.10;4.63;;;;;;;2.30;100.00;100109.98;1729815;82;21022;-75
2021/01/23 00:27:21;;;;;;;10.53;5.20;;;;;;;2.31;100.00;100103.70;1746822;82;20933;-74
2021/01/23 00:29:48;;;;;;;9.20;4.03;;;;;;;2.33;100.00;100099.58;1749616;82;21558;-73
2021/01/23 00:32:16;;;;;;;8.43;4.50;;;;;;;2.34;100.00;100096.80;1738959;81;21677;-74
2021/01/23 00:34:45;;;;;;;6.93;4.27;;;;;;;2.36;100.00;100090.02;1734213;82;21332;-74
2021/01/23 00:37:13;;;;;;;7.57;2.57;;;;;;;2.35;100.00;100094.97;1734305;82;20944;-75
2021/01/23 00:39:41;;;;;;;4.40;3.03;;;;;;;2.36;100.00;100098.02;1734303;82;21003;-75
2021/01/23 00:42:10;;;;;;;7.70;4.17;;;;;;;2.36;100.00;100092.19;1734333;82;20984;-73
2021/01/23 00:44:37;;;;;;;8.50;3.97;;;;;;;2.36;100.00;100090.86;1734162;82;21385;-74
2021/01/23 00:47:05;;;;;;;9.27;3.90;;;;;;;2.37;100.00;100089.88;1734238;82;21031;-73
2021/01/23 00:49:34;;;;;;;5.10;3.03;;;;;;;2.37;100.00;100087.70;1734413;82;21588;-75
2021/01/23 00:52:02;;;;;;;5.53;3.20;;;;;;;2.36;100.00;100082.01;1734267;82;20976;-74
2021/01/23 00:54:29;;;;;;;6.97;3.97;;;;;;;2.35;100.00;100085.14;1734374;82;20940;-75
2021/01/23 00:56:57;;;;;;;7.63;4.07;;;;;;;2.35;100.00;100091.81;1734192;82;21370;-74
2021/01/23 00:59:25;;;;;;;4.83;2.97;;;;;;;2.34;100.00;100082.13;1734316;82;21011;-74
2021/01/23 01:01:54;;;;;;;7.37;3.43;;;;;;;2.36;100.00;100075.34;1730536;82;21643;-75
2021/01/23 01:04:23;;;;;;;10.20;3.70;;;;;;;2.36;100.00;100072.67;1733529;82;21051;-74
2021/01/23 01:06:51;;;;;;;10.10;4.63;;;;;;;2.36;100.00;100072.17;1734326;82;21172;-75
2021/01/23 01:09:19;;;;;;;7.87;3.87;;;;;;;2.35;100.00;100069.12;1734249;82;21663;-73
2021/01/23 01:11:47;;;;;;;5.33;3.10;;;;;;;2.36;100.00;100067.33;1734289;82;20992;-76
2021/01/23 01:14:15;;;;;;;9.77;4.70;;;;;;;2.37;100.00;100065.02;1734343;82;21003;-74
2021/01/23 01:16:43;;;;;;;6.83;3.23;;;;;;;2.33;100.00;100057.73;1734320;82;21154;-74
2021/01/23 01:19:11;;;;;;;12.17;5.20;;;;;;;2.33;100.00;100055.55;1734208;82;21016;-74
2021/01/23 01:21:38;;;;;;;7.87;4.57;;;;;;;2.34;100.00;100059.90;1734398;82;21368;-74
2021/01/23 01:24:07;;;;;;;5.93;3.73;;;;;;;2.31;100.00;100057.48;1734152;82;21003;-75
2021/01/23 01:26:35;;;;;;;4.93;2.93;;;;;;;2.31;100.00;100049.48;1742482;82;20993;-75
2021/01/23 01:29:03;;;;;;;5.23;3.70;;;;;;;2.30;100.00;100050.44;1749636;82;20961;-74
2021/01/23 01:31:30;;;;;;;6.70;4.10;;;;;;;2.29;100.00;100050.94;1741964;81;21051;-74
2021/01/23 01:33:58;;;;;;;6.77;4.00;;;;;;;2.28;100.00;100046.55;1729910;83;21485;-74
2021/01/23 01:36:26;;;;;;;6.60;3.50;;;;;;;2.26;100.00;100045.83;1711849;82;21558;-76
2021/01/23 01:38:54;;;;;;;8.47;3.77;;;;;;;2.27;100.00;100044.88;1726479;83;21080;-74
2021/01/23 01:41:22;;;;;;;6.80;3.90;;;;;;;2.26;100.00;100034.66;1726515;83;21036;-75
2021/01/23 01:43:49;;;;;;;4.77;3.50;;;;;;;2.27;100.00;100040.37;1726627;83;20943;-75
2021/01/23 01:46:17;;;;;;;5.57;3.17;;;;;;;2.26;100.00;100037.82;1726549;83;21554;-74
2021/01/23 01:48:49;;;;;;;9.03;3.90;;;;;;;2.24;100.00;100039.76;1726414;83;21028;-74
2021/01/23 01:51:16;;;;;;;8.20;4.07;;;;;;;2.22;100.00;100041.20;1726453;83;21052;-74
2021/01/23 01:53:45;;;;;;;4.73;3.33;;;;;;;2.22;100.00;100047.88;1726394;83;21025;-74
2021/01/23 01:56:13;;;;;;;6.97;3.20;;;;;;;2.21;100.00;100043.53;1726470;83;21013;-75
2021/01/23 01:58:41;;;;;;;3.90;2.57;;;;;;;2.21;100.00;100044.86;1726466;83;21793;-74
2021/01/23 02:01:09;;;;;;;4.13;3.20;;;;;;;2.21;100.00;100051.53;1726358;83;21042;-74
2021/01/23 02:04:01;;;;;;;5.80;3.30;;;;;;;2.23;100.00;100057.59;1726399;83;20948;-74
2021/01/23 02:07:14;;;;;;;7.70;4.03;;;;;;;2.24;100.00;100055.28;1695982;84;20965;-74
2021/01/23 02:09:59;;;;;;;5.80;3.03;;;;;;;2.25;100.00;100046.81;1696336;84;21001;-75
2021/01/23 02:12:55;;;;;;;3.50;2.80;;;;;;;2.24;100.00;100043.27;1722457;83;21201;-74
2021/01/23 02:15:24;;;;;;;4.77;3.13;;;;;;;2.23;100.00;100044.72;1691909;84;21060;-74
2021/01/23 02:18:08;;;;;;;2.80;2.40;;;;;;;2.20;100.00;100043.64;1669890;84;21635;-74
2021/01/23 02:21:06;;;;;;;4.07;2.47;;;;;;;2.19;100.00;100041.44;1890129;76;26341;-74
2021/01/23 02:23:37;;;;;;;5.87;3.50;;;;;;;2.16;100.00;100044.82;1861116;77;20892;-74
2021/01/23 02:26:37;;;;;;;6.50;3.33;;;;;;;2.15;100.00;100045.80;1861200;77;21193;-75
2021/01/23 02:29:24;;;;;;;2.73;2.37;;;;;;;2.12;100.00;100049.54;1861116;77;20981;-76
2021/01/23 02:31:54;;;;;;;2.87;2.30;;;;;;;2.08;100.00;100043.59;1870612;76;20910;-75
2021/01/23 02:34:24;;;;;;;2.90;2.43;;;;;;;2.05;100.00;100047.84;1879165;76;20958;-75
2021/01/23 02:36:54;;;;;;;3.37;2.30;;;;;;;2.05;100.00;100049.64;1791200;80;20969;-73
2021/01/23 02:39:23;;;;;;;3.17;2.57;;;;;;;2.03;100.00;100051.58;1823726;78;22182;-75
2021/01/23 02:41:54;;;;;;;6.37;2.70;;;;;;;2.02;100.00;100042.73;1791231;80;20942;-74
2021/01/23 02:44:22;;;;;;;6.13;3.73;;;;;;;2.01;100.00;100037.02;1823733;78;21435;-74
2021/01/23 02:46:54;;;;;;;4.27;3.53;;;;;;;2.00;100.00;100046.01;1791238;80;20981;-75
2021/01/23 02:49:22;;;;;;;4.33;2.62;;;;;;;2.00;100.00;100038.00;1823736;78;21001;-74
2021/01/23 02:52:24;;;;;;;6.27;3.73;;;;;;;1.99;100.00;100036.30;1773979;80;22665;-74
2021/01/23 02:55:03;;;;;;;3.97;2.47;;;;;;;2.00;100.00;100038.00;1823682;78;20953;-76
2021/01/23 02:57:31;;;;;;;4.20;3.00;;;;;;;2.04;100.00;100042.13;1791211;80;21009;-74
2021/01/23 03:00:06;;;;;;;9.37;3.93;;;;;;;2.05;100.00;100034.97;1823560;78;20989;-74
2021/01/23 03:02:44;;;;;;;5.10;2.80;;;;;;;2.04;100.00;100041.29;1791356;80;21475;-74
2021/01/23 03:05:12;;;;;;;4.20;2.93;;;;;;;2.02;100.00;100041.41;1820772;78;21392;-73
2021/01/23 03:07:41;;;;;;;6.03;2.90;;;;;;;2.00;100.00;100039.80;1774008;80;21029;-75
2021/01/23 03:10:11;;;;;;;4.47;2.87;;;;;;;1.99;100.00;100034.12;1794207;78;21001;-74
2021/01/23 03:12:39;;;;;;;12.00;3.47;;;;;;;1.99;100.00;100038.12;1791389;80;20993;-76
2021/01/23 03:15:10;;;;;;;4.50;3.07;;;;;;;1.98;100.00;100046.58;1823877;78;21068;-74
2021/01/23 03:17:38;;;;;;;6.27;3.47;;;;;;;1.99;100.00;100043.45;1791247;80;21404;-74
2021/01/23 03:20:08;;;;;;;5.33;3.07;;;;;;;1.98;100.00;100045.73;1823590;78;21053;-75
2021/01/23 03:22:35;;;;;;;5.73;3.80;;;;;;;1.96;100.00;100039.19;1791373;80;21477;-75
2021/01/23 03:25:05;;;;;;;5.20;3.80;;;;;;;1.97;100.00;100046.23;1823810;78;20993;-74
2021/01/23 03:27:32;;;;;;;6.50;3.80;;;;;;;1.97;100.00;100038.72;1791174;79;20954;-74
2021/01/23 03:30:02;;;;;;;3.40;2.67;;;;;;;1.95;100.00;100040.63;1823423;78;22108;-74
2021/01/23 03:32:30;;;;;;;6.87;3.57;;;;;;;1.96;100.00;100047.67;1801764;78;20967;-75
2021/01/23 03:34:58;;;;;;;4.87;2.53;;;;;;;1.95;100.00;100047.30;1828968;78;20994;-74
2021/01/23 03:37:26;;;;;;;5.10;3.03;;;;;;;1.94;100.00;100047.78;1786326;78;20990;-73
2021/01/23 03:39:54;;;;;;;4.00;3.13;;;;;;;1.94;100.00;100045.13;1755776;81;21506;-75
2021/01/23 03:42:22;;;;;;;6.17;3.93;;;;;;;1.96;100.00;100043.67;1772312;80;22668;-75
2021/01/23 03:44:50;;;;;;;7.57;4.27;;;;;;;1.94;100.00;100040.28;1755905;81;20981;-74
2021/01/23 03:47:17;;;;;;;11.37;5.67;;;;;;;1.92;100.00;100039.06;1772201;81;20986;-75
2021/01/23 03:49:46;;;;;;;6.00;3.87;;;;;;;1.92;100.00;100037.72;1755760;81;21074;-74
2021/01/23 03:52:14;;;;;;;6.27;3.53;;;;;;;1.92;100.00;100042.22;1772456;81;21435;-75
2021/01/23 03:54:42;;;;;;;5.13;3.33;;;;;;;1.90;100.00;100041.84;1755863;81;21660;-75
2021/01/23 03:57:10;;;;;;;4.07;3.10;;;;;;;1.90;100.00;100036.99;1772093;81;21006;-74
2021/01/23 03:59:38;;;;;;;4.07;2.87;;;;;;;1.90;100.00;100040.50;1755415;81;21028;-75
2021/01/23 04:02:06;;;;;;;5.63;3.20;;;;;;;1.91;100.00;100042.67;1772012;81;21037;-75
2021/01/23 04:04:34;;;;;;;3.83;2.93;;;;;;;1.92;100.00;100039.55;1755435;81;20909;-76
2021/01/23 04:07:01;;;;;;;5.63;3.20;;;;;;;1.92;100.00;100035.55;1771927;81;21397;-76
2021/01/23 04:09:30;;;;;;;2.87;2.00;;;;;;;1.91;100.00;100034.67;1755541;80;21020;-75
2021/01/23 04:11:57;;;;;;;2.20;2.03;;;;;;;1.94;100.00;100044.28;1771948;81;21025;-76
2021/01/23 04:14:25;;;;;;;4.57;2.70;;;;;;;1.98;100.00;100045.73;1755382;81;21008;-76
2021/01/23 04:16:53;;;;;;;3.30;2.77;;;;;;;1.99;100.00;100034.95;1771844;81;21109;-75
2021/01/23 04:19:21;;;;;;;4.27;2.60;;;;;;;2.00;100.00;100039.80;1756281;81;21655;-75
2021/01/23 04:21:49;;;;;;;7.07;3.23;;;;;;;2.01;100.00;100034.35;1775112;80;20982;-75
2021/01/23 04:24:16;;;;;;;3.60;2.57;;;;;;;2.02;100.00;100040.53;1761060;81;21575;-75
2021/01/23 04:26:44;;;;;;;3.77;2.53;;;;;;;2.03;100.00;100039.58;1797733;79;20885;-75
2021/01/23 04:29:12;;;;;;;2.90;2.40;;;;;;;2.04;100.00;100039.47;1806239;79;20967;-74
2021/01/23 04:31:40;;;;;;;2.93;2.43;;;;;;;2.06;100.00;100039.35;1803857;79;21382;-75
2021/01/23 04:34:09;;;;;;;3.60;2.50;;;;;;;2.07;100.00;100035.70;1800907;79;20947;-74
2021/01/23 04:36:36;;;;;;;4.87;3.17;;;;;;;2.08;100.00;100039.59;1800945;79;20994;-76
2021/01/23 04:39:04;;;;;;;4.53;2.93;;;;;;;2.07;100.00;100034.36;1800914;79;20959;-75
2021/01/23 04:41:32;;;;;;;2.87;1.87;;;;;;;2.05;100.00;100037.18;1802056;79;21041;-75
2021/01/23 04:44:00;;;;;;;4.23;2.67;;;;;;;2.05;100.00;100038.97;1802743;79;21644;-75
2021/01/23 04:46:28;;;;;;;2.50;2.30;;;;;;;2.04;100.00;100042.13;1802894;79;21080;-75
2021/01/23 04:48:56;;;;;;;6.70;2.67;;;;;;;2.06;100.00;100039.35;1796134;80;21474;-75
2021/01/23 04:51:26;;;;;;;2.73;2.30;;;;;;;2.05;100.00;100037.18;1828623;78;20973;-75
2021/01/23 04:53:54;;;;;;;5.23;3.20;;;;;;;2.07;100.00;100035.23;1796186;80;21000;-74
2021/01/23 04:56:22;;;;;;;4.07;2.93;;;;;;;2.09;100.00;100035.12;1828724;78;21199;-74
2021/01/23 04:58:49;;;;;;;3.50;2.43;;;;;;;2.10;100.00;100034.14;1796051;80;21032;-75
2021/01/23 05:01:17;;;;;;;3.67;1.93;;;;;;;2.13;100.00;100039.74;1828720;78;20977;-76
2021/01/23 05:04:01;;;;;;;4.63;2.70;;;;;;;2.14;100.00;100036.93;1791465;80;21004;-75
2021/01/23 05:06:30;;;;;;;;;;;;;;;2.14;100.00;100038.76;1831341;78;21605;-74
2021/01/23 05:08:57;;;;;;;6.67;2.80;;;;;;;2.14;100.00;100032.09;1828707;78;21779;-74
2021/01/23 05:11:49;;;;;;;3.23;2.70;;;;;;;2.14;100.00;100024.92;1796086;80;21143;-75
2021/01/23 05:14:17;;;;;;;4.60;2.93;;;;;;;2.14;100.00;100040.93;1828700;78;21017;-75
2021/01/23 05:16:45;;;;;;;4.37;2.20;;;;;;;2.13;100.00;100033.08;1796149;80;21562;-74
2021/01/23 05:19:14;;;;;;;4.70;3.00;;;;;;;2.13;100.00;100025.91;1828645;78;21029;-75
2021/01/23 05:21:41;;;;;;;6.77;3.67;;;;;;;2.13;100.00;100032.58;1796042;80;21204;-75
2021/01/23 05:24:11;;;;;;;4.53;3.07;;;;;;;2.15;100.00;100038.64;1828646;78;20937;-75
2021/01/23 05:26:40;;;;;;;4.30;2.83;;;;;;;2.16;100.00;100030.15;1796033;80;20994;-74
2021/01/23 05:29:11;;;;;;;4.17;2.97;;;;;;;2.18;100.00;100025.54;1796140;80;21574;-75
2021/01/23 05:31:40;;;;;;;3.40;2.20;;;;;;;2.19;100.00;100024.09;1796093;79;20993;-75
2021/01/23 05:34:31;;;;;;;7.47;3.20;;;;;;;2.18;100.00;100018.88;1828669;78;21542;-74
2021/01/23 05:37:00;;;;;;;8.03;3.10;;;;;;;2.19;100.00;100024.59;1819525;78;20966;-75
2021/01/23 05:39:50;;;;;;;6.97;3.30;;;;;;;2.19;100.00;100029.43;1796054;80;21016;-74
2021/01/23 05:42:18;;;;;;;3.17;2.67;;;;;;;2.19;100.00;100019.25;1819618;78;21660;-74
2021/01/23 05:45:13;;;;;;;6.70;3.50;;;;;;;2.20;100.00;100016.47;1796101;79;21566;-75
2021/01/23 05:47:41;;;;;;;4.17;3.07;;;;;;;2.23;100.00;100016.24;1819474;78;21419;-75
2021/01/23 05:50:10;;;;;;;7.80;4.07;;;;;;;2.24;100.00;100006.41;1795926;80;20934;-75
2021/01/23 05:52:38;;;;;;;8.17;4.23;;;;;;;2.25;100.00;100012.12;1819557;78;21005;-74
2021/01/23 05:55:08;;;;;;;7.47;3.87;;;;;;;2.26;100.00;100004.47;1819391;78;21600;-75
2021/01/23 05:57:36;;;;;;;8.43;4.20;;;;;;;2.26;100.00;100011.14;1819631;78;21578;-74
2021/01/23 06:00:07;;;;;;;5.80;3.30;;;;;;;2.26;100.00;100010.64;1819444;78;20990;-74
2021/01/23 06:02:36;;;;;;;10.57;4.70;;;;;;;2.28;100.00;100005.19;1819393;78;21048;-74
2021/01/23 06:05:05;;;;;;;12.20;5.40;;;;;;;2.32;100.00;100007.14;1795913;80;20930;-75
2021/01/23 06:07:44;;;;;;;8.43;4.03;;;;;;;2.34;100.00;100009.20;1819428;78;21037;-75
2021/01/23 06:10:32;;;;;;;9.43;4.87;;;;;;;2.36;100.00;100009.46;1795987;79;20910;-74
2021/01/23 06:13:02;;;;;;;6.10;3.60;;;;;;;2.38;100.00;100013.35;1819567;78;21651;-74
2021/01/23 06:15:39;;;;;;;6.90;3.63;;;;;;;2.40;100.00;100016.25;1795929;80;21537;-70
2021/01/23 06:18:08;;;;;;;7.87;4.13;;;;;;;2.42;100.00;100024.98;1819635;78;21558;-74
2021/01/23 06:20:46;;;;;;;7.33;4.20;;;;;;;2.45;100.00;100010.57;1793085;79;20989;-75
2021/01/23 06:23:17;;;;;;;9.80;4.80;;;;;;;2.44;100.00;100005.72;1757191;79;21064;-75
2021/01/23 06:25:55;;;;;;;6.87;3.80;;;;;;;2.46;100.00;100005.58;1769342;80;21644;-74
2021/01/23 06:28:32;;;;;;;10.67;4.33;;;;;;;2.45;100.00;100004.73;1794245;80;21020;-74
2021/01/23 06:31:20;;;;;;;7.40;4.70;;;;;;;2.49;100.00;99998.67;1789184;79;21021;-75
2021/01/23 06:33:50;;;;;;;12.07;5.60;;;;;;;2.52;100.00;100003.78;1762892;81;21061;-78
2021/01/23 06:36:22;;;;;;;8.00;4.20;;;;;;;2.54;100.00;100005.84;1663819;86;20974;-77
2021/01/23 06:39:08;;;;;;;6.10;3.73;;;;;;;2.58;100.00;100014.45;1663664;86;21577;-74
2021/01/23 06:41:37;;;;;;;6.97;4.23;;;;;;;2.58;100.00;100011.30;1663898;86;21191;-74
2021/01/23 06:44:17;;;;;;;8.17;3.83;;;;;;;2.61;100.00;100006.21;1663681;86;20974;-74
2021/01/23 06:46:56;;;;;;;9.30;4.00;;;;;;;2.64;100.00;100001.48;1663897;86;21714;-74
2021/01/23 06:49:25;;;;;;;11.80;4.67;;;;;;;2.64;100.00;100005.98;1663830;86;21031;-75
2021/01/23 06:52:06;;;;;;;5.77;3.10;;;;;;;2.62;100.00;100002.09;1663961;86;21742;-75
2021/01/23 06:54:35;;;;;;;6.07;3.47;;;;;;;2.63;100.00;100015.78;1662734;86;21160;-74
2021/01/23 06:57:05;;;;;;;6.07;3.40;;;;;;;2.64;100.00;100015.33;1678109;83;21595;-74
2021/01/23 06:59:36;;;;;;;9.80;3.90;;;;;;;2.63;100.00;100009.11;1746955;82;21597;-75
2021/01/23 07:02:10;;;;;;;6.43;2.70;;;;;;;2.63;100.00;100017.13;1755906;81;21017;-75
2021/01/23 07:04:48;;;;;;;3.93;2.50;;;;;;;2.64;100.00;100009.48;1699134;84;21626;-74
2021/01/23 07:07:17;;;;;;;5.57;2.67;;;;;;;2.65;100.00;100011.17;1744633;81;21049;-75
2021/01/23 07:09:55;;;;;;;7.83;3.63;;;;;;;2.67;100.00;100017.73;1699252;84;21088;-74
2021/01/23 07:12:39;;;;;;;7.77;4.17;;;;;;;2.66;100.00;100004.03;1744877;82;20970;-74
2021/01/23 07:15:16;;;;;;;4.10;2.47;;;;;;;2.67;100.00;100000.37;1699118;82;21123;-75
2021/01/23 07:17:52;;;;;;;4.90;2.77;;;;;;;2.70;100.00;100001.97;1870278;76;26734;-75
2021/01/23 07:20:20;;;;;;;5.73;3.57;;;;;;;2.65;100.00;100009.84;1840548;77;20941;-74
2021/01/23 07:22:48;;;;;;;6.53;3.70;;;;;;;2.68;100.00;100014.10;1827358;78;22630;-75
2021/01/23 07:25:17;;;;;;;3.67;2.57;;;;;;;2.68;100.00;100010.09;1831458;77;20999;-76
2021/01/23 07:27:45;;;;;;;8.37;3.73;;;;;;;2.68;100.00;100007.92;1855894;77;21434;-75
2021/01/23 07:30:17;;;;;;;6.67;3.87;;;;;;;2.68;100.00;100010.59;1817098;78;20996;-75
2021/01/23 07:32:46;;;;;;;7.90;3.30;;;;;;;2.67;100.00;100016.39;1768682;80;21093;-74
2021/01/23 07:35:16;;;;;;;4.40;2.53;;;;;;;2.68;100.00;100021.27;1766041;80;20978;-75
2021/01/23 07:37:55;;;;;;;8.00;3.60;;;;;;;2.69;100.00;100018.95;1768309;80;21014;-76
2021/01/23 07:40:27;;;;;;;3.33;2.93;;;;;;;2.69;100.00;100019.78;1763816;81;21007;-76
2021/01/23 07:43:01;;;;;;;4.33;2.20;;;;;;;2.70;100.00;100019.33;1705810;83;21659;-76
2021/01/23 07:45:36;;;;;;;7.60;3.23;;;;;;;2.73;100.00;100010.59;1846021;77;26872;-76
2021/01/23 07:48:06;;;;;;;7.17;3.37;;;;;;;2.72;100.00;100021.38;1838806;77;21020;-77
2021/01/23 07:50:38;;;;;;;7.60;3.30;;;;;;;2.72;100.00;100024.89;1831549;77;22197;-76
2021/01/23 07:53:22;;;;;;;5.33;3.30;;;;;;;2.74;100.00;100015.43;1696039;82;21171;-78
2021/01/23 07:55:51;;;;;;;5.33;3.17;;;;;;;2.75;100.00;100012.64;1728135;82;21603;-79
2021/01/23 07:58:19;;;;;;;6.57;4.10;;;;;;;2.75;100.00;100004.63;1718623;82;21053;-76
2021/01/23 08:00:47;;;;;;;3.23;2.87;;;;;;;2.77;100.00;100012.03;1728786;82;20966;-77
2021/01/23 08:03:14;;;;;;;7.57;3.57;;;;;;;2.76;100.00;100006.81;1717984;82;21903;-76
2021/01/23 08:05:57;;;;;;;6.77;3.67;;;;;;;2.75;100.00;100001.12;1710461;82;21062;-75
2021/01/23 08:08:34;;;;;;;6.97;3.63;;;;;;;2.75;100.00;100006.46;1717869;82;21669;-74
2021/01/23 08:11:03;;;;;;;5.67;3.83;;;;;;;2.72;100.00;100000.86;1713016;82;21172;-77
2021/01/23 08:13:33;;;;;;;4.73;3.53;;;;;;;2.72;100.00;100009.37;1732188;82;21017;-75
2021/01/23 08:16:13;;;;;;;6.33;4.07;;;;;;;2.71;100.00;100005.86;1712624;82;21757;-75
2021/01/23 08:21:19;;;;;;;19.27;10.10;;;;;;;2.74;100.00;100008.27;1882194;75;26850;-73
2021/01/23 08:23:47;;;;;;;10.27;6.07;;;;;;;2.74;100.00;100005.59;1849647;76;20967;-74
2021/01/23 08:26:18;;;;;;;10.70;5.30;;;;;;;2.76;100.00;100006.81;1863659;76;21474;-72
2021/01/23 08:28:47;;;;;;;7.10;4.13;;;;;;;2.77;100.00;100014.70;1857368;77;21014;-74
2021/01/23 08:31:19;;;;;;;10.67;5.07;;;;;;;2.77;100.00;100008.03;1859101;76;21034;-73
2021/01/23 08:33:56;;;;;;;5.37;3.90;;;;;;;2.80;100.00;100009.62;1854021;76;21567;-74
2021/01/23 08:36:29;;;;;;;8.67;4.17;;;;;;;2.82;100.00;100008.52;1728919;81;21129;-73
2021/01/23 08:39:05;;;;;;;8.73;4.47;;;;;;;2.85;100.00;99999.39;1741427;81;21281;-70
2021/01/23 08:41:33;;;;;;;12.70;5.00;;;;;;;2.86;100.00;100001.11;1725915;81;21080;-74
2021/01/23 08:44:02;;;;;;;8.20;3.70;;;;;;;2.87;100.00;100004.16;1726884;81;21770;-76
2021/01/23 08:46:31;;;;;;;5.77;3.40;;;;;;;2.90;100.00;100007.05;1713909;82;21245;-74
2021/01/23 08:49:00;;;;;;;7.43;3.97;;;;;;;2.92;100.00;100007.77;1713419;82;21295;-78
2021/01/23 08:51:29;;;;;;;6.80;3.53;;;;;;;2.94;100.00;100000.48;1731165;82;21265;-75
2021/01/23 08:53:57;;;;;;;14.97;7.87;;;;;;;2.96;100.00;99997.23;1733630;81;21039;-76
2021/01/23 08:56:25;;;;;;;13.83;5.80;;;;;;;2.98;100.00;100000.62;1734607;82;21036;-75
2021/01/23 08:58:53;;;;;;;9.93;4.67;;;;;;;3.01;100.00;99995.88;1718991;81;21021;-75
2021/01/23 09:01:21;;;;;;;9.57;4.57;;;;;;;3.03;100.00;99994.42;1724997;82;21226;-73
2021/01/23 09:03:49;;;;;;;7.70;3.90;;;;;;;3.04;100.00;99996.94;1715948;81;21276;-76
2021/01/23 09:06:23;;;;;;;8.37;4.43;;;;;;;3.06;100.00;99993.31;1716440;82;21040;-75
2021/01/23 09:09:00;;;;;;;11.17;4.70;;;;;;;3.09;100.00;99989.91;1733904;81;21075;-77
2021/01/23 09:11:39;;;;;;;13.73;4.07;;;;;;;3.13;100.00;99985.16;1708784;81;20976;-71
2021/01/23 09:14:18;;;;;;;10.13;4.80;;;;;;;3.13;100.00;99976.65;1734557;80;21022;-71
2021/01/23 09:16:46;;;;;;;6.67;3.33;;;;;;;3.14;100.00;99980.19;1729056;80;21659;-74
2021/01/23 09:19:17;;;;;;;6.07;3.83;;;;;;;3.16;100.00;99979.08;1739427;80;21625;-74
2021/01/23 09:22:03;;;;;;;5.97;3.50;;;;;;;3.19;100.00;99978.84;1684776;83;21677;-75
2021/01/23 09:24:31;;;;;;;11.63;5.13;;;;;;;3.22;100.00;99977.72;1762005;80;21228;-71
2021/01/23 09:26:59;;;;;;;7.40;4.20;;;;;;;3.25;100.00;99967.28;1801999;78;21073;-74
2021/01/23 09:29:27;;;;;;;12.83;5.63;;;;;;;3.30;100.00;99971.27;1776196;80;21429;-72
2021/01/23 09:31:55;;;;;;;9.60;4.50;;;;;;;3.33;100.00;99971.50;1768534;78;21085;-71
2021/01/23 09:34:24;;;;;;;9.10;4.40;;;;;;;3.35;100.00;99978.43;1837167;76;20988;-72
2021/01/23 09:36:51;;;;;;;7.67;3.80;;;;;;;3.39;100.00;99973.18;1853836;76;21153;-71
2021/01/23 09:39:19;;;;;;;7.67;3.57;;;;;;;3.41;100.00;99975.73;1844850;77;21532;-71
2021/01/23 09:41:47;;;;;;;10.47;4.97;;;;;;;3.43;100.00;99977.78;1853095;77;21810;-72
2021/01/23 09:44:15;;;;;;;7.80;4.63;;;;;;;3.44;100.00;99972.81;1738553;81;21044;-74
2021/01/23 09:46:43;;;;;;;9.83;3.90;;;;;;;3.47;100.00;99964.55;1789799;79;20997;-71
2021/01/23 09:49:11;;;;;;;9.97;5.23;;;;;;;3.48;100.00;99960.05;1805316;78;21120;-70
2021/01/23 09:51:39;;;;;;;10.07;4.37;;;;;;;3.51;100.00;99959.30;1782724;79;20989;-70
2021/01/23 09:54:07;;;;;;;8.40;5.17;;;;;;;3.54;100.00;99965.73;1789080;79;21308;-74
2021/01/23 09:56:35;;;;;;;10.20;4.47;;;;;;;3.57;100.00;99969.47;1761470;79;21024;-75
2021/01/23 09:59:03;;;;;;;10.03;4.90;;;;;;;3.61;100.00;99964.71;1800126;78;21569;-75
2021/01/23 10:01:31;;;;;;;11.90;4.90;;;;;;;3.64;100.00;99958.27;1785666;79;21041;-74
2021/01/23 10:03:59;;;;;;;11.67;4.60;;;;;;;3.69;100.00;99963.59;1789914;79;21009;-75
2021/01/23 10:06:27;;;;;;;10.60;4.90;;;;;;;3.73;100.00;99957.50;1795490;79;21644;-74
2021/01/23 10:08:55;;;;;;;13.43;5.77;;;;;;;3.75;100.00;99955.06;1774888;80;21025;-76
2021/01/23 10:11:23;;;;;;;13.97;7.43;;;;;;;3.77;100.00;99965.14;1782028;80;21318;-76
2021/01/23 10:13:52;;;;;;;15.90;7.03;;;;;;;3.79;100.00;99960.51;1785478;80;21026;-71
2021/01/23 10:16:20;;;;;;;11.53;5.40;;;;;;;3.80;100.00;99958.67;1822487;78;21756;-71
2021/01/23 10:18:48;;;;;;;10.93;5.50;;;;;;;3.84;100.00;99950.73;1790813;78;21017;-71
2021/01/23 10:21:16;;;;;;;8.57;4.57;;;;;;;3.85;100.00;99951.11;1785458;79;21072;-74
2021/01/23 10:23:44;;;;;;;16.83;6.80;;;;;;;3.86;100.00;99944.80;1795372;79;21012;-76
2021/01/23 10:26:12;;;;;;;15.60;5.63;;;;;;;3.87;100.00;99946.97;1781797;79;21113;-74
2021/01/23 10:28:41;;;;;;;12.17;5.63;;;;;;;3.87;100.00;99938.45;1769137;80;21012;-72
2021/01/23 10:31:09;;;;;;;12.97;4.83;;;;;;;3.86;100.00;99939.91;1786929;80;20973;-73
2021/01/23 10:33:37;;;;;;;16.33;4.67;;;;;;;3.86;100.00;99936.77;1761937;80;21009;-74
2021/01/23 10:36:06;;;;;;;13.73;5.43;;;;;;;3.87;100.00;99927.75;1759102;81;21005;-73
2021/01/23 10:38:35;;;;;;;13.73;5.67;;;;;;;3.86;100.00;99939.45;1759228;81;21052;-72
2021/01/23 10:41:02;;;;;;;13.20;6.40;;;;;;;3.86;100.00;99942.59;1759174;81;21009;-72
2021/01/23 10:43:31;;;;;;;11.53;5.97;;;;;;;3.87;100.00;99939.79;1759301;81;21818;-73
2021/01/23 10:46:02;;;;;;;10.63;4.70;;;;;;;3.88;100.00;99937.95;1758973;81;21021;-74
2021/01/23 10:48:30;;;;;;;13.27;5.23;;;;;;;3.89;100.00;99939.66;1759014;81;20943;-73
2021/01/23 10:50:59;;;;;;;11.83;5.33;;;;;;;3.88;100.00;99939.29;1759107;81;20997;-72
2021/01/23 10:53:27;;;;;;;9.07;4.60;;;;;;;3.88;100.00;99936.15;1758996;81;20941;-72
2021/01/23 10:55:55;;;;;;;10.57;5.07;;;;;;;3.89;100.00;99939.16;1759089;81;22387;-73
2021/01/23 10:58:23;;;;;;;8.47;4.27;;;;;;;3.89;100.00;99935.65;1758954;81;21054;-73
2021/01/23 11:00:51;;;;;;;15.60;5.93;;;;;;;3.88;100.00;99931.27;1759509;80;21548;-74
2021/01/23 11:03:19;;;;;;;14.00;5.33;;;;;;;3.88;100.00;99925.91;1790051;79;20937;-73
2021/01/23 11:05:48;;;;;;;11.43;5.40;;;;;;;3.88;100.00;99925.91;1789684;80;20934;-74
2021/01/23 11:08:16;;;;;;;8.57;4.60;;;;;;;3.86;100.00;99927.41;1773001;80;21613;-73
2021/01/23 11:10:43;;;;;;;10.67;4.63;;;;;;;3.88;100.00;99925.45;1777713;80;20966;-74
2021/01/23 11:13:11;;;;;;;9.10;4.57;;;;;;;3.88;100.00;99926.78;1762415;81;21027;-72
2021/01/23 11:15:39;;;;;;;10.63;4.60;;;;;;;3.89;100.00;99928.46;1775029;80;21495;-73
2021/01/23 11:18:07;;;;;;;10.17;4.30;;;;;;;3.91;100.00;99927.00;1760343;80;21052;-72
2021/01/23 11:20:35;;;;;;;12.20;5.77;;;;;;;3.93;100.00;99929.92;1779591;80;21621;-71
2021/01/23 11:23:03;;;;;;;8.13;4.13;;;;;;;3.95;100.00;99931.97;1786051;80;21033;-72
2021/01/23 11:25:31;;;;;;;14.90;5.53;;;;;;;3.95;100.00;99921.77;1805145;79;20990;-72
2021/01/23 11:27:59;;;;;;;10.70;4.93;;;;;;;3.96;100.00;99922.11;1786408;80;21530;-73
2021/01/23 11:30:27;;;;;;;12.17;6.00;;;;;;;3.97;100.00;99911.28;1786401;80;21024;-76
2021/01/23 11:32:55;;;;;;;10.87;5.27;;;;;;;4.00;100.00;99912.83;1792085;79;21198;-75
2021/01/23 11:35:24;;;;;;;11.40;5.50;;;;;;;4.01;100.00;99909.69;1765039;80;21037;-76
2021/01/23 11:37:53;;;;;;;8.67;4.50;;;;;;;4.03;100.00;99900.53;1822769;77;21041;-75
2021/01/23 11:40:20;;;;;;;16.13;5.10;;;;;;;4.05;100.00;99911.10;1779112;80;21010;-73
2021/01/23 11:42:48;;;;;;;6.60;4.40;;;;;;;4.07;100.00;99911.81;1784615;80;21140;-73
2021/01/23 11:45:18;;;;;;;9.33;4.10;;;;;;;4.06;100.00;99902.95;1789315;79;22587;-74